JF7ELG-13 Weather Reports


Display with metric or nautical units.
time (UTC)temp
F
wind
direction
speed
MPH
gust
MPH
rain 1hr
in
rain 24hr
in
rain mn
in
humidity
%
barometer
mb
20191115120552 52 90 0.0 0.0 0.00 0.00 0.00 49 1006.0
20191115113552 52 90 0.0 0.0 0.00 0.00 0.00 52 1006.0
20191115110554 52 90 0.0 0.0 0.00 0.00 0.00 52 1006.0
20191115103553 52 90 0.0 0.0 0.00 0.00 0.00 52 1007.0
20191115100552 52 90 0.0 0.0 0.00 0.00 0.00 52 1006.0
20191115093553 51 90 0.0 0.0 0.00 0.00 0.00 63 1007.0
20191115090554 51 90 0.0 0.0 0.00 0.00 0.00 63 1007.0
20191115083553 51 90 0.0 0.0 0.00 0.00 0.00 63 1007.0
20191115080554 65 90 0.0 0.0 0.00 0.00 0.00 44 1007.0
20191115073554 65 90 0.0 0.0 0.00 0.00 0.00 44 1007.0
20191115070553 65 90 0.0 0.0 0.00 0.00 0.00 44 1007.0
20191115063553 65 90 0.0 0.0 0.00 0.00 0.00 44 1007.0
20191115060554 65 90 0.0 0.0 0.00 0.00 0.00 44 1007.0
20191115053552 69 90 0.0 0.0 0.00 0.00 0.00 43 1006.0
20191115050552 66 90 0.0 0.0 0.00 0.00 0.00 45 1006.0
20191115043552 66 90 0.0 0.0 0.00 0.00 0.00 45 1006.0
20191115040554 66 90 0.0 0.0 0.00 0.00 0.00 45 1007.0
20191115033554 65 90 0.0 0.0 0.00 0.00 0.00 43 1007.0
20191115030553 65 90 0.0 0.0 0.00 0.00 0.00 43 1008.0
20191115023554 65 90 0.0 0.0 0.00 0.00 0.00 43 1008.0
20191115020554 65 90 0.0 0.0 0.00 0.00 0.00 43 1008.0
20191115013553 64 90 0.0 0.0 0.00 0.00 0.00 43 1008.0
20191115010553 65 90 0.0 0.0 0.00 0.00 0.00 49 1009.0
20191115003553 65 90 0.0 0.0 0.00 0.00 0.00 49 1009.0
20191115000553 65 90 0.0 0.0 0.00 0.00 0.00 49 1009.0
20191114233552 65 90 0.0 0.0 0.00 0.00 0.00 49 1009.0
20191114230554 58 90 0.0 0.0 0.00 0.00 0.00 60 1009.0
20191114223553 51 90 0.0 0.0 0.00 0.00 0.00 78 1009.0
20191114220553 44 90 0.0 0.0 0.00 0.00 0.00 95 1009.0
20191114213553 42 90 0.0 0.0 0.00 0.00 0.00 90 1009.0
20191114210553 42 90 0.0 0.0 0.00 0.00 0.00 90 1009.0
20191114203551 42 90 0.0 0.0 0.00 0.00 0.00 90 1008.0
20191114200551 42 90 0.0 0.0 0.00 0.00 0.00 90 1008.0
20191114193551 42 90 0.0 0.0 0.00 0.00 0.00 90 1008.0
20191114190553 38 90 0.0 0.0 0.00 0.00 0.00 93 1008.0
20191114185729 38 90 0.0 0.0 0.00 0.00 0.00 93 1008.0
20191114182728 38 90 0.0 0.0 0.00 0.00 0.00 93 1008.0
20191114175729 38 90 0.0 0.0 0.00 0.00 0.00 93 1008.0
20191114172729 37 90 0.0 0.0 0.00 0.00 0.00 91 1008.0
20191114165730 37 90 0.0 0.0 0.00 0.00 0.00 89 1008.0
20191114162730 37 90 0.0 0.0 0.00 0.00 0.00 87 1007.0
20191114155729 38 90 0.0 0.0 0.00 0.00 0.00 86 1007.0
20191114152730 39 90 0.0 0.0 0.00 0.00 0.00 84 1007.0
20191114145729 40 90 0.0 0.0 0.00 0.00 0.00 82 1007.0
20191114142728 41 90 0.0 0.0 0.00 0.00 0.00 78 1006.0
20191114135728 42 90 0.0 0.0 0.00 0.00 0.00 78 1007.0
20191114132729 42 90 0.0 0.0 0.00 0.00 0.00 79 1007.0
20191114125729 41 90 0.0 0.0 0.00 0.00 0.00 82 1007.0
20191114122729 40 90 0.0 0.0 0.00 0.00 0.00 82 1006.0